sensor_id;sensor_type;location;lat;lon;timestamp;P1;durP1;ratioP1;P2;durP2;ratioP2
1847;SDS011;924;52.448;13.356;2023-03-18T09:10:30;6.30;;;5.70;;
1847;SDS011;924;52.448;13.356;2023-03-18T09:12:55;9.30;;;6.63;;
1847;SDS011;924;52.448;13.356;2023-03-18T09:15:21;6.60;;;5.87;;
1847;SDS011;924;52.448;13.356;2023-03-18T09:17:47;9.40;;;6.67;;
1847;SDS011;924;52.448;13.356;2023-03-18T09:20:13;8.80;;;7.97;;
1847;SDS011;924;52.448;13.356;2023-03-18T09:22:40;9.07;;;6.67;;
1847;SDS011;924;52.448;13.356;2023-03-18T09:25:07;10.67;;;6.80;;
1847;SDS011;924;52.448;13.356;2023-03-18T09:27:33;6.83;;;6.10;;
1847;SDS011;924;52.448;13.356;2023-03-18T09:29:58;7.30;;;6.30;;
1847;SDS011;924;52.448;13.356;2023-03-18T09:32:24;9.43;;;8.43;;
1847;SDS011;924;52.448;13.356;2023-03-18T09:34:50;8.93;;;6.60;;
1847;SDS011;924;52.448;13.356;2023-03-18T09:37:16;7.47;;;6.43;;
1847;SDS011;924;52.448;13.356;2023-03-18T09:39:42;8.60;;;6.33;;
1847;SDS011;924;52.448;13.356;2023-03-18T09:45:03;6.80;;;5.93;;
1847;SDS011;924;52.448;13.356;2023-03-18T09:55:55;8.90;;;7.03;;
1847;SDS011;924;52.448;13.356;2023-03-18T10:00:59;6.67;;;6.03;;
1847;SDS011;924;52.448;13.356;2023-03-18T10:05:54;7.13;;;6.30;;
1847;SDS011;924;52.448;13.356;2023-03-18T10:11:21;7.90;;;7.00;;
1847;SDS011;924;52.448;13.356;2023-03-18T10:17:05;8.30;;;6.27;;
1847;SDS011;924;52.448;13.356;2023-03-18T10:19:33;8.47;;;6.40;;
1847;SDS011;924;52.448;13.356;2023-03-18T10:24:36;8.30;;;5.80;;
1847;SDS011;924;52.448;13.356;2023-03-18T10:27:13;7.73;;;6.20;;
1847;SDS011;924;52.448;13.356;2023-03-18T10:32:31;10.37;;;6.67;;
1847;SDS011;924;52.448;13.356;2023-03-18T10:35:13;7.97;;;6.80;;
1847;SDS011;924;52.448;13.356;2023-03-18T10:37:50;7.20;;;5.73;;
1847;SDS011;924;52.448;13.356;2023-03-18T10:40:20;9.30;;;6.63;;
1847;SDS011;924;52.448;13.356;2023-03-18T10:42:48;8.83;;;7.60;;
1847;SDS011;924;52.448;13.356;2023-03-18T10:45:21;7.40;;;6.47;;
1847;SDS011;924;52.448;13.356;2023-03-18T10:47:51;7.57;;;6.30;;
1847;SDS011;924;52.448;13.356;2023-03-18T10:53:33;6.73;;;5.57;;
1847;SDS011;924;52.448;13.356;2023-03-18T10:56:13;7.13;;;6.53;;
1847;SDS011;924;52.448;13.356;2023-03-18T10:58:39;6.37;;;5.77;;
1847;SDS011;924;52.448;13.356;2023-03-18T11:01:06;7.13;;;6.17;;
1847;SDS011;924;52.448;13.356;2023-03-18T11:03:34;7.17;;;6.30;;
1847;SDS011;924;52.448;13.356;2023-03-18T11:06:05;6.03;;;5.43;;
1847;SDS011;924;52.448;13.356;2023-03-18T11:08:40;9.50;;;6.90;;
1847;SDS011;924;52.448;13.356;2023-03-18T11:11:18;7.67;;;6.87;;
1847;SDS011;924;52.448;13.356;2023-03-18T11:13:49;6.80;;;6.17;;
1847;SDS011;924;52.448;13.356;2023-03-18T11:16:23;7.30;;;6.60;;
1847;SDS011;924;52.448;13.356;2023-03-18T11:18:54;9.20;;;6.10;;
1847;SDS011;924;52.448;13.356;2023-03-18T11:21:21;6.70;;;6.10;;
1847;SDS011;924;52.448;13.356;2023-03-18T11:24:19;7.13;;;6.43;;
1847;SDS011;924;52.448;13.356;2023-03-18T11:26:58;8.33;;;6.80;;
1847;SDS011;924;52.448;13.356;2023-03-18T11:29:25;7.87;;;6.80;;
1847;SDS011;924;52.448;13.356;2023-03-18T11:31:54;6.87;;;6.17;;
1847;SDS011;924;52.448;13.356;2023-03-18T11:34:25;7.53;;;6.37;;
1847;SDS011;924;52.448;13.356;2023-03-18T11:36:59;8.80;;;5.70;;
1847;SDS011;924;52.448;13.356;2023-03-18T11:39:29;7.03;;;5.30;;
1847;SDS011;924;52.448;13.356;2023-03-18T11:41:57;7.40;;;6.60;;
1847;SDS011;924;52.448;13.356;2023-03-18T11:44:27;5.50;;;5.00;;
1847;SDS011;924;52.448;13.356;2023-03-18T11:47:04;8.70;;;6.40;;
1847;SDS011;924;52.448;13.356;2023-03-18T11:49:36;5.33;;;4.83;;
1847;SDS011;924;52.448;13.356;2023-03-18T11:52:05;8.93;;;4.83;;
1847;SDS011;924;52.448;13.356;2023-03-18T12:00:36;6.90;;;6.30;;
1847;SDS011;924;52.448;13.356;2023-03-18T12:28:12;5.80;;;5.30;;
1847;SDS011;924;52.448;13.356;2023-03-18T12:35:59;6.03;;;5.40;;
1847;SDS011;924;52.448;13.356;2023-03-18T12:38:53;6.20;;;5.70;;
1847;SDS011;924;52.448;13.356;2023-03-18T12:49:56;6.53;;;5.47;;
1847;SDS011;924;52.448;13.356;2023-03-18T12:55:17;9.33;;;5.80;;
1847;SDS011;924;52.448;13.356;2023-03-18T12:57:47;6.70;;;5.30;;
1847;SDS011;924;52.448;13.356;2023-03-18T13:03:39;5.63;;;5.13;;
1847;SDS011;924;52.448;13.356;2023-03-18T13:08:46;6.10;;;4.87;;
1847;SDS011;924;52.448;13.356;2023-03-18T13:11:32;7.53;;;5.40;;
1847;SDS011;924;52.448;13.356;2023-03-18T13:14:46;6.73;;;5.43;;
1847;SDS011;924;52.448;13.356;2023-03-18T13:17:11;9.10;;;5.57;;
1847;SDS011;924;52.448;13.356;2023-03-18T13:19:39;7.00;;;6.30;;
1847;SDS011;924;52.448;13.356;2023-03-18T13:25:03;11.73;;;6.43;;
1847;SDS011;924;52.448;13.356;2023-03-18T13:36:02;6.77;;;5.00;;
1847;SDS011;924;52.448;13.356;2023-03-18T13:44:29;7.27;;;6.57;;
1847;SDS011;924;52.448;13.356;2023-03-18T13:47:02;6.43;;;5.90;;
1847;SDS011;924;52.448;13.356;2023-03-18T13:49:31;6.47;;;5.20;;
1847;SDS011;924;52.448;13.356;2023-03-18T13:51:58;6.80;;;6.20;;
1847;SDS011;924;52.448;13.356;2023-03-18T13:54:31;8.70;;;6.40;;
1847;SDS011;924;52.448;13.356;2023-03-18T13:57:14;6.87;;;6.27;;
1847;SDS011;924;52.448;13.356;2023-03-18T13:59:49;8.73;;;7.00;;
1847;SDS011;924;52.448;13.356;2023-03-18T14:04:58;7.20;;;6.60;;
1847;SDS011;924;52.448;13.356;2023-03-18T14:07:24;6.40;;;5.80;;
1847;SDS011;924;52.448;13.356;2023-03-18T14:09:54;7.03;;;5.53;;
1847;SDS011;924;52.448;13.356;2023-03-18T14:12:37;5.70;;;5.17;;
1847;SDS011;924;52.448;13.356;2023-03-18T14:20:24;7.53;;;5.53;;
1847;SDS011;924;52.448;13.356;2023-03-18T14:26:00;5.47;;;4.67;;
1847;SDS011;924;52.448;13.356;2023-03-18T14:28:27;7.03;;;5.10;;
1847;SDS011;924;52.448;13.356;2023-03-18T14:33:49;5.30;;;4.80;;
1847;SDS011;924;52.448;13.356;2023-03-18T14:42:03;4.30;;;3.90;;
1847;SDS011;924;52.448;13.356;2023-03-18T14:44:48;4.33;;;3.80;;
1847;SDS011;924;52.448;13.356;2023-03-18T14:47:18;5.80;;;4.30;;
1847;SDS011;924;52.448;13.356;2023-03-18T14:50:04;5.23;;;4.00;;
1847;SDS011;924;52.448;13.356;2023-03-18T14:52:38;4.17;;;3.70;;
1847;SDS011;924;52.448;13.356;2023-03-18T14:55:14;4.10;;;3.00;;
1847;SDS011;924;52.448;13.356;2023-03-18T14:57:43;5.20;;;3.50;;
1847;SDS011;924;52.448;13.356;2023-03-18T15:00:16;4.10;;;3.70;;
1847;SDS011;924;52.448;13.356;2023-03-18T15:02:43;5.20;;;3.47;;
1847;SDS011;924;52.448;13.356;2023-03-18T15:05:16;3.33;;;3.00;;
1847;SDS011;924;52.448;13.356;2023-03-18T15:07:43;5.60;;;4.47;;
1847;SDS011;924;52.448;13.356;2023-03-18T15:10:14;6.33;;;3.90;;
1847;SDS011;924;52.448;13.356;2023-03-18T15:12:55;7.83;;;3.70;;
1847;SDS011;924;52.448;13.356;2023-03-18T15:15:22;4.73;;;3.50;;
1847;SDS011;924;52.448;13.356;2023-03-18T15:17:47;5.20;;;4.30;;
1847;SDS011;924;52.448;13.356;2023-03-18T15:20:13;7.67;;;3.80;;
1847;SDS011;924;52.448;13.356;2023-03-18T15:22:39;3.90;;;3.50;;
1847;SDS011;924;52.448;13.356;2023-03-18T15:25:14;4.10;;;3.30;;
1847;SDS011;924;52.448;13.356;2023-03-18T15:27:42;3.80;;;3.37;;
1847;SDS011;924;52.448;13.356;2023-03-18T15:33:17;6.27;;;3.47;;
1847;SDS011;924;52.448;13.356;2023-03-18T15:35:44;4.73;;;3.47;;
1847;SDS011;924;52.448;13.356;2023-03-18T15:38:18;7.33;;;4.07;;
1847;SDS011;924;52.448;13.356;2023-03-18T15:40:51;4.57;;;2.90;;
1847;SDS011;924;52.448;13.356;2023-03-18T15:46:29;4.60;;;3.03;;
1847;SDS011;924;52.448;13.356;2023-03-18T15:48:56;7.00;;;3.87;;
1847;SDS011;924;52.448;13.356;2023-03-18T15:51:40;3.90;;;3.00;;
1847;SDS011;924;52.448;13.356;2023-03-18T15:57:08;3.93;;;3.03;;
1847;SDS011;924;52.448;13.356;2023-03-18T15:59:36;7.03;;;4.53;;
1847;SDS011;924;52.448;13.356;2023-03-18T16:02:05;3.50;;;3.20;;
1847;SDS011;924;52.448;13.356;2023-03-18T16:04:38;3.83;;;3.53;;
1847;SDS011;924;52.448;13.356;2023-03-18T16:07:05;4.03;;;3.60;;
1847;SDS011;924;52.448;13.356;2023-03-18T16:09:41;4.20;;;3.50;;
1847;SDS011;924;52.448;13.356;2023-03-18T16:12:12;5.37;;;3.20;;
1847;SDS011;924;52.448;13.356;2023-03-18T16:14:43;4.37;;;3.80;;
1847;SDS011;924;52.448;13.356;2023-03-18T16:17:12;4.90;;;3.30;;
1847;SDS011;924;52.448;13.356;2023-03-18T16:19:38;4.43;;;3.57;;
1847;SDS011;924;52.448;13.356;2023-03-18T16:22:04;4.50;;;3.93;;
1847;SDS011;924;52.448;13.356;2023-03-18T16:24:30;4.67;;;3.60;;
1847;SDS011;924;52.448;13.356;2023-03-18T16:26:55;6.50;;;4.13;;
1847;SDS011;924;52.448;13.356;2023-03-18T16:29:31;3.37;;;3.07;;
1847;SDS011;924;52.448;13.356;2023-03-18T16:32:00;5.57;;;4.00;;
1847;SDS011;924;52.448;13.356;2023-03-18T16:34:26;4.27;;;3.87;;
1847;SDS011;924;52.448;13.356;2023-03-18T16:36:52;7.50;;;4.50;;
1847;SDS011;924;52.448;13.356;2023-03-18T16:39:21;5.23;;;4.30;;
1847;SDS011;924;52.448;13.356;2023-03-18T16:41:52;6.60;;;4.13;;
1847;SDS011;924;52.448;13.356;2023-03-18T16:44:19;5.53;;;4.93;;
1847;SDS011;924;52.448;13.356;2023-03-18T16:46:47;6.20;;;5.17;;
1847;SDS011;924;52.448;13.356;2023-03-18T16:49:17;6.20;;;5.40;;
1847;SDS011;924;52.448;13.356;2023-03-18T16:51:45;8.67;;;6.53;;
1847;SDS011;924;52.448;13.356;2023-03-18T16:54:21;8.07;;;6.10;;
1847;SDS011;924;52.448;13.356;2023-03-18T16:56:51;7.63;;;5.97;;
1847;SDS011;924;52.448;13.356;2023-03-18T16:59:22;8.77;;;7.87;;
1847;SDS011;924;52.448;13.356;2023-03-18T17:01:49;9.90;;;7.63;;
1847;SDS011;924;52.448;13.356;2023-03-18T17:04:15;6.30;;;4.93;;
1847;SDS011;924;52.448;13.356;2023-03-18T17:06:43;10.73;;;6.07;;
1847;SDS011;924;52.448;13.356;2023-03-18T17:09:08;9.17;;;8.20;;
1847;SDS011;924;52.448;13.356;2023-03-18T17:11:33;9.70;;;6.93;;
1847;SDS011;924;52.448;13.356;2023-03-18T17:13:59;7.40;;;6.70;;
1847;SDS011;924;52.448;13.356;2023-03-18T17:16:25;7.43;;;6.73;;
1847;SDS011;924;52.448;13.356;2023-03-18T17:18:54;8.67;;;7.50;;
1847;SDS011;924;52.448;13.356;2023-03-18T17:21:19;7.27;;;6.57;;
1847;SDS011;924;52.448;13.356;2023-03-18T17:23:45;10.00;;;7.27;;
1847;SDS011;924;52.448;13.356;2023-03-18T17:26:11;10.87;;;7.43;;
1847;SDS011;924;52.448;13.356;2023-03-18T17:28:41;8.40;;;7.60;;
1847;SDS011;924;52.448;13.356;2023-03-18T17:31:10;7.00;;;6.30;;
1847;SDS011;924;52.448;13.356;2023-03-18T17:33:36;10.60;;;7.70;;
1847;SDS011;924;52.448;13.356;2023-03-18T17:36:02;7.60;;;6.27;;
1847;SDS011;924;52.448;13.356;2023-03-18T17:38:29;7.13;;;6.43;;
1847;SDS011;924;52.448;13.356;2023-03-18T17:40:55;8.63;;;7.70;;
1847;SDS011;924;52.448;13.356;2023-03-18T17:43:24;9.97;;;8.97;;
1847;SDS011;924;52.448;13.356;2023-03-18T17:45:56;6.73;;;6.03;;
1847;SDS011;924;52.448;13.356;2023-03-18T17:48:26;8.87;;;6.63;;
1847;SDS011;924;52.448;13.356;2023-03-18T17:50:58;6.43;;;5.83;;
1847;SDS011;924;52.448;13.356;2023-03-18T17:53:37;6.87;;;5.63;;
1847;SDS011;924;52.448;13.356;2023-03-18T17:56:05;5.90;;;5.17;;
1847;SDS011;924;52.448;13.356;2023-03-18T17:58:34;7.87;;;6.00;;
1847;SDS011;924;52.448;13.356;2023-03-18T18:01:02;6.57;;;5.83;;
1847;SDS011;924;52.448;13.356;2023-03-18T18:03:29;9.40;;;6.20;;
1847;SDS011;924;52.448;13.356;2023-03-18T18:05:57;7.07;;;5.83;;
1847;SDS011;924;52.448;13.356;2023-03-18T18:08:23;8.07;;;6.73;;
1847;SDS011;924;52.448;13.356;2023-03-18T18:10:50;9.50;;;7.63;;
1847;SDS011;924;52.448;13.356;2023-03-18T18:13:19;10.50;;;8.30;;
1847;SDS011;924;52.448;13.356;2023-03-18T18:15:46;9.87;;;8.80;;
1847;SDS011;924;52.448;13.356;2023-03-18T18:18:20;9.70;;;7.90;;
1847;SDS011;924;52.448;13.356;2023-03-18T18:23:24;8.73;;;6.87;;
1847;SDS011;924;52.448;13.356;2023-03-18T18:26:01;8.70;;;7.63;;
1847;SDS011;924;52.448;13.356;2023-03-18T18:28:39;10.40;;;6.70;;
1847;SDS011;924;52.448;13.356;2023-03-18T18:31:07;8.50;;;6.77;;
1847;SDS011;924;52.448;13.356;2023-03-18T18:33:34;6.97;;;5.83;;
1847;SDS011;924;52.448;13.356;2023-03-18T18:36:01;8.47;;;6.10;;
1847;SDS011;924;52.448;13.356;2023-03-18T18:38:27;7.37;;;5.63;;
1847;SDS011;924;52.448;13.356;2023-03-18T18:40:53;7.50;;;6.70;;
1847;SDS011;924;52.448;13.356;2023-03-18T18:43:20;9.03;;;7.57;;
1847;SDS011;924;52.448;13.356;2023-03-18T18:45:50;8.40;;;6.70;;
1847;SDS011;924;52.448;13.356;2023-03-18T18:48:51;12.50;;;7.00;;
1847;SDS011;924;52.448;13.356;2023-03-18T18:51:13;12.93;;;8.20;;
1847;SDS011;924;52.448;13.356;2023-03-18T18:53:40;10.27;;;8.00;;
1847;SDS011;924;52.448;13.356;2023-03-18T18:58:42;11.60;;;8.70;;
1847;SDS011;924;52.448;13.356;2023-03-18T19:01:08;12.30;;;9.90;;
1847;SDS011;924;52.448;13.356;2023-03-18T19:03:35;10.67;;;8.80;;
1847;SDS011;924;52.448;13.356;2023-03-18T19:06:00;15.07;;;9.70;;
1847;SDS011;924;52.448;13.356;2023-03-18T19:08:29;11.90;;;9.03;;
1847;SDS011;924;52.448;13.356;2023-03-18T19:11:00;11.20;;;9.00;;
1847;SDS011;924;52.448;13.356;2023-03-18T19:13:29;13.83;;;8.80;;
1847;SDS011;924;52.448;13.356;2023-03-18T19:16:00;10.70;;;8.20;;
1847;SDS011;924;52.448;13.356;2023-03-18T19:18:38;9.70;;;8.70;;
1847;SDS011;924;52.448;13.356;2023-03-18T19:21:05;12.67;;;9.30;;
1847;SDS011;924;52.448;13.356;2023-03-18T19:23:31;9.87;;;7.30;;
1847;SDS011;924;52.448;13.356;2023-03-18T19:25:58;11.53;;;9.10;;
1847;SDS011;924;52.448;13.356;2023-03-18T19:28:25;10.20;;;8.73;;
1847;SDS011;924;52.448;13.356;2023-03-18T19:31:16;9.73;;;8.17;;
1847;SDS011;924;52.448;13.356;2023-03-18T19:33:46;13.07;;;10.10;;
1847;SDS011;924;52.448;13.356;2023-03-18T19:39:04;10.83;;;9.43;;
1847;SDS011;924;52.448;13.356;2023-03-18T19:41:31;12.70;;;9.63;;
1847;SDS011;924;52.448;13.356;2023-03-18T19:43:57;12.10;;;9.77;;
1847;SDS011;924;52.448;13.356;2023-03-18T19:46:33;13.47;;;9.90;;
1847;SDS011;924;52.448;13.356;2023-03-18T19:49:08;11.03;;;10.00;;
1847;SDS011;924;52.448;13.356;2023-03-18T19:51:36;11.57;;;10.43;;
1847;SDS011;924;52.448;13.356;2023-03-18T19:54:02;12.57;;;10.07;;
1847;SDS011;924;52.448;13.356;2023-03-18T19:56:42;15.00;;;12.30;;
1847;SDS011;924;52.448;13.356;2023-03-18T19:59:08;19.43;;;17.50;;
1847;SDS011;924;52.448;13.356;2023-03-18T20:01:43;32.50;;;26.10;;
1847;SDS011;924;52.448;13.356;2023-03-18T20:04:08;22.10;;;19.80;;
1847;SDS011;924;52.448;13.356;2023-03-18T20:06:39;20.07;;;16.87;;
1847;SDS011;924;52.448;13.356;2023-03-18T20:09:04;20.77;;;16.13;;
1847;SDS011;924;52.448;13.356;2023-03-18T20:11:30;17.07;;;14.80;;
1847;SDS011;924;52.448;13.356;2023-03-18T20:13:56;14.90;;;13.10;;
1847;SDS011;924;52.448;13.356;2023-03-18T20:16:21;16.70;;;12.37;;
1847;SDS011;924;52.448;13.356;2023-03-18T20:18:49;17.83;;;14.67;;
1847;SDS011;924;52.448;13.356;2023-03-18T20:21:22;16.37;;;14.87;;
1847;SDS011;924;52.448;13.356;2023-03-18T20:23:51;16.00;;;14.40;;
1847;SDS011;924;52.448;13.356;2023-03-18T20:26:18;18.77;;;15.70;;
1847;SDS011;924;52.448;13.356;2023-03-18T20:28:44;16.60;;;14.80;;
1847;SDS011;924;52.448;13.356;2023-03-18T20:31:10;16.73;;;15.00;;
1847;SDS011;924;52.448;13.356;2023-03-18T20:33:36;19.10;;;15.50;;
1847;SDS011;924;52.448;13.356;2023-03-18T20:36:01;23.97;;;15.10;;
1847;SDS011;924;52.448;13.356;2023-03-18T20:38:37;17.03;;;15.27;;
1847;SDS011;924;52.448;13.356;2023-03-18T20:41:07;15.20;;;13.20;;
1847;SDS011;924;52.448;13.356;2023-03-18T20:43:35;16.40;;;12.03;;
1847;SDS011;924;52.448;13.356;2023-03-18T20:46:00;15.37;;;13.13;;
1847;SDS011;924;52.448;13.356;2023-03-18T20:48:26;13.73;;;12.27;;
1847;SDS011;924;52.448;13.356;2023-03-18T20:50:52;13.27;;;11.87;;
1847;SDS011;924;52.448;13.356;2023-03-18T20:53:24;13.77;;;11.70;;
1847;SDS011;924;52.448;13.356;2023-03-18T20:55:52;11.50;;;10.37;;
1847;SDS011;924;52.448;13.356;2023-03-18T20:58:18;11.60;;;10.50;;
1847;SDS011;924;52.448;13.356;2023-03-18T21:00:45;15.00;;;10.17;;
1847;SDS011;924;52.448;13.356;2023-03-18T21:03:30;13.43;;;12.13;;
1847;SDS011;924;52.448;13.356;2023-03-18T21:05:58;13.33;;;11.93;;
1847;SDS011;924;52.448;13.356;2023-03-18T21:08:25;13.27;;;12.00;;
1847;SDS011;924;52.448;13.356;2023-03-18T21:10:52;12.47;;;11.27;;
1847;SDS011;924;52.448;13.356;2023-03-18T21:15:53;11.23;;;10.20;;
1847;SDS011;924;52.448;13.356;2023-03-18T21:18:21;11.83;;;10.63;;
1847;SDS011;924;52.448;13.356;2023-03-18T21:20:47;11.10;;;9.90;;
1847;SDS011;924;52.448;13.356;2023-03-18T21:23:32;11.80;;;10.53;;
1847;SDS011;924;52.448;13.356;2023-03-18T21:25:58;10.93;;;9.90;;
1847;SDS011;924;52.448;13.356;2023-03-18T21:28:26;11.10;;;10.00;;
1847;SDS011;924;52.448;13.356;2023-03-18T21:30:53;10.87;;;9.50;;
1847;SDS011;924;52.448;13.356;2023-03-18T21:33:30;13.97;;;10.20;;
1847;SDS011;924;52.448;13.356;2023-03-18T21:35:57;14.17;;;11.40;;
1847;SDS011;924;52.448;13.356;2023-03-18T21:38:24;11.80;;;10.60;;
1847;SDS011;924;52.448;13.356;2023-03-18T21:40:51;13.63;;;10.70;;
1847;SDS011;924;52.448;13.356;2023-03-18T21:45:57;11.60;;;10.33;;
1847;SDS011;924;52.448;13.356;2023-03-18T21:48:23;11.20;;;9.30;;
1847;SDS011;924;52.448;13.356;2023-03-18T21:50:49;11.83;;;9.47;;
1847;SDS011;924;52.448;13.356;2023-03-18T21:53:16;13.97;;;10.57;;
1847;SDS011;924;52.448;13.356;2023-03-18T21:55:44;13.77;;;10.17;;
1847;SDS011;924;52.448;13.356;2023-03-18T21:58:20;12.40;;;10.47;;
1847;SDS011;924;52.448;13.356;2023-03-18T22:00:49;11.73;;;9.90;;
1847;SDS011;924;52.448;13.356;2023-03-18T22:03:18;12.97;;;10.67;;
1847;SDS011;924;52.448;13.356;2023-03-18T22:05:45;11.90;;;10.70;;
1847;SDS011;924;52.448;13.356;2023-03-18T22:08:12;12.43;;;9.83;;
1847;SDS011;924;52.448;13.356;2023-03-18T22:10:39;12.87;;;11.60;;
1847;SDS011;924;52.448;13.356;2023-03-18T22:15:47;13.27;;;11.93;;
1847;SDS011;924;52.448;13.356;2023-03-18T22:18:17;12.07;;;10.90;;
1847;SDS011;924;52.448;13.356;2023-03-18T22:20:43;11.40;;;10.30;;
1847;SDS011;924;52.448;13.356;2023-03-18T22:23:17;13.73;;;11.60;;
1847;SDS011;924;52.448;13.356;2023-03-18T22:25:43;17.20;;;12.63;;
1847;SDS011;924;52.448;13.356;2023-03-18T22:28:10;12.00;;;10.80;;
1847;SDS011;924;52.448;13.356;2023-03-18T22:30:36;13.20;;;12.00;;
1847;SDS011;924;52.448;13.356;2023-03-18T22:33:03;12.17;;;11.03;;
1847;SDS011;924;52.448;13.356;2023-03-18T22:35:30;13.23;;;11.97;;
1847;SDS011;924;52.448;13.356;2023-03-18T22:37:56;12.03;;;10.77;;
1847;SDS011;924;52.448;13.356;2023-03-18T22:40:23;12.53;;;11.37;;
1847;SDS011;924;52.448;13.356;2023-03-18T22:42:50;14.03;;;12.40;;
1847;SDS011;924;52.448;13.356;2023-03-18T22:45:18;12.60;;;11.30;;
1847;SDS011;924;52.448;13.356;2023-03-18T22:47:45;13.30;;;12.00;;
1847;SDS011;924;52.448;13.356;2023-03-18T22:50:10;14.10;;;12.57;;
1847;SDS011;924;52.448;13.356;2023-03-18T22:52:35;12.67;;;11.37;;
1847;SDS011;924;52.448;13.356;2023-03-18T22:55:01;12.47;;;11.20;;
1847;SDS011;924;52.448;13.356;2023-03-18T22:57:34;13.90;;;11.87;;
1847;SDS011;924;52.448;13.356;2023-03-18T22:59:59;14.27;;;12.87;;
1847;SDS011;924;52.448;13.356;2023-03-18T23:02:25;15.80;;;12.10;;
1847;SDS011;924;52.448;13.356;2023-03-18T23:04:52;15.10;;;13.57;;
1847;SDS011;924;52.448;13.356;2023-03-18T23:09:52;15.63;;;14.20;;
1847;SDS011;924;52.448;13.356;2023-03-18T23:12:20;15.13;;;13.73;;
1847;SDS011;924;52.448;13.356;2023-03-18T23:14:46;14.93;;;13.52;;
1847;SDS011;924;52.448;13.356;2023-03-18T23:17:18;14.38;;;13.18;;
1847;SDS011;924;52.448;13.356;2023-03-18T23:19:47;16.60;;;15.00;;
1847;SDS011;924;52.448;13.356;2023-03-18T23:22:14;16.50;;;14.80;;
1847;SDS011;924;52.448;13.356;2023-03-18T23:24:41;15.00;;;13.40;;
1847;SDS011;924;52.448;13.356;2023-03-18T23:27:07;18.23;;;14.80;;
1847;SDS011;924;52.448;13.356;2023-03-18T23:29:33;17.83;;;16.13;;
1847;SDS011;924;52.448;13.356;2023-03-18T23:31:58;19.17;;;17.20;;
1847;SDS011;924;52.448;13.356;2023-03-18T23:34:23;18.00;;;16.20;;
1847;SDS011;924;52.448;13.356;2023-03-18T23:36:49;17.90;;;16.10;;
1847;SDS011;924;52.448;13.356;2023-03-18T23:39:15;17.27;;;15.47;;
1847;SDS011;924;52.448;13.356;2023-03-18T23:41:40;16.37;;;14.87;;
1847;SDS011;924;52.448;13.356;2023-03-18T23:44:05;16.85;;;15.25;;
1847;SDS011;924;52.448;13.356;2023-03-18T23:46:31;16.30;;;14.70;;
1847;SDS011;924;52.448;13.356;2023-03-18T23:48:56;16.43;;;14.73;;
1847;SDS011;924;52.448;13.356;2023-03-18T23:51:21;16.50;;;14.90;;
1847;SDS011;924;52.448;13.356;2023-03-18T23:53:47;15.80;;;14.20;;
1847;SDS011;924;52.448;13.356;2023-03-18T23:56:12;16.90;;;15.30;;
1847;SDS011;924;52.448;13.356;2023-03-18T23:58:39;16.02;;;14.43;;
